Time;durP1;ratioP1;P1;durP2;ratioP2;P2;SDS_P1;SDS_P2;PMS_P1;PMS_P2;Temp;Humidity;BMP_temperature;BMP_pressure;BME280_temperature;BME280_humidity;BME280_pressure;Samples;Min_cycle;Max_cycle;Signal;HPM_P1;HPM_P2
2022/01/24 00:01:50;;;;;;;21.02;10.25;;;;;;;1.23;47.94;95768.41;5009877;28;20248;-62
2022/01/24 00:04:18;;;;;;;21.65;11.90;;;;;;;1.46;48.73;95776.91;5009376;28;20228;-61
2022/01/24 00:06:45;;;;;;;19.13;11.02;;;;;;;2.62;46.85;95768.94;5009401;28;20201;-62
2022/01/24 00:09:12;;;;;;;21.92;11.07;;;;;;;2.00;47.62;95775.63;5009139;28;20212;-62
2022/01/24 00:12:17;;;;;;;17.75;10.90;;;;;;;2.86;46.47;95775.50;5009709;28;20533;-61
2022/01/24 00:28:04;;;;;;;18.00;9.90;;;;;;;2.22;46.15;95774.69;5008349;28;20214;-62
2022/01/24 00:30:31;;;;;;;17.90;9.85;;;;;;;1.73;47.24;95769.31;5008919;28;20217;-61
2022/01/24 00:32:59;;;;;;;17.63;9.98;;;;;;;1.12;48.38;95794.66;5008843;28;20205;-62
2022/01/24 00:35:26;;;;;;;17.58;9.45;;;;;;;1.32;48.04;95790.59;5009162;28;20206;-62
2022/01/24 00:37:58;;;;;;;17.17;10.00;;;;;;;1.69;47.76;95787.94;5008769;28;20198;-61
2022/01/24 00:40:27;;;;;;;44.90;21.75;;;;;;;1.57;47.75;95784.22;5009240;28;20252;-61
2022/01/24 00:42:58;;;;;;;22.65;10.85;;;;;;;2.19;46.57;95795.72;5008700;28;20271;-64
2022/01/24 00:55:48;;;;;;;19.77;10.68;;;;;;;1.44;47.54;95802.13;5009099;28;20198;-61
2022/01/24 00:58:15;;;;;;;16.45;9.50;;;;;;;1.46;47.42;95802.75;5009015;28;20296;-61
2022/01/24 01:00:42;;;;;;;17.10;10.13;;;;;;;1.70;47.29;95805.03;5012674;28;20807;-60
2022/01/24 01:03:09;;;;;;;18.70;10.52;;;;;;;1.74;46.48;95788.22;5012387;28;20233;-61
2022/01/24 01:06:02;;;;;;;16.70;10.00;;;;;;;2.54;45.84;95796.69;5012808;28;20302;-62
2022/01/24 01:19:34;;;;;;;16.10;9.73;;;;;;;1.59;47.50;95782.25;5011439;28;20202;-61
2022/01/24 01:22:03;;;;;;;17.98;10.23;;;;;;;1.41;47.67;95794.69;5012396;28;20194;-62
2022/01/24 01:24:33;;;;;;;19.05;10.63;;;;;;;1.93;46.60;95790.25;5011782;28;20217;-63
2022/01/24 01:27:27;;;;;;;18.73;10.18;;;;;;;1.29;47.90;95790.97;5011908;28;20201;-61
2022/01/24 01:30:00;;;;;;;18.70;9.80;;;;;;;0.79;47.97;95789.78;5011657;28;20198;-62
2022/01/24 01:56:46;;;;;;;22.35;11.77;;;;;;;2.05;45.36;95788.78;5010931;28;20212;-61
2022/01/24 01:59:13;;;;;;;19.88;11.10;;;;;;;2.18;45.49;95781.19;5011416;28;20202;-62
2022/01/24 02:01:40;;;;;;;21.13;11.35;;;;;;;1.94;46.34;95784.09;5011303;28;20701;-61
2022/01/24 02:04:07;;;;;;;20.65;11.18;;;;;;;1.69;46.60;95777.63;5011556;28;20557;-61
2022/01/24 02:06:34;;;;;;;20.25;12.10;;;;;;;2.12;45.68;95784.50;5011186;28;20707;-63
2022/01/24 02:09:10;;;;;;;19.42;11.18;;;;;;;2.09;45.82;95784.88;5010708;28;20208;-62
2022/01/24 02:11:38;;;;;;;14.50;8.35;;;;;;;1.55;46.15;95792.13;5012056;28;20679;-63
2022/01/24 02:14:10;;;;;;;20.40;11.50;;;;;;;0.45;49.41;95766.19;5013757;28;20272;-62
2022/01/24 02:16:54;;;;;;;20.63;12.00;;;;;;;1.86;47.01;95784.22;5013700;28;20245;-62
2022/01/24 02:19:34;;;;;;;23.45;12.40;;;;;;;2.43;45.69;95782.47;5011058;28;20213;-63
2022/01/24 02:24:42;;;;;;;22.67;11.70;;;;;;;1.92;45.71;95788.63;5010423;28;20217;-62
2022/01/24 02:27:11;;;;;;;21.75;10.98;;;;;;;1.49;47.03;95748.16;5010520;28;20197;-61
2022/01/24 02:32:17;;;;;;;19.80;12.52;;;;;;;1.63;47.03;95788.66;5010816;28;20206;-61
2022/01/24 02:34:47;;;;;;;20.92;10.85;;;;;;;2.42;45.41;95793.81;5010419;28;20198;-61
2022/01/24 02:37:17;;;;;;;23.77;11.80;;;;;;;1.76;46.33;95792.22;5010297;28;20213;-61
2022/01/24 02:48:25;;;;;;;20.25;12.10;;;;;;;1.68;47.11;95812.19;5010079;28;20639;-61
2022/01/24 02:53:40;;;;;;;22.83;12.02;;;;;;;2.30;45.45;95818.53;5025344;28;20563;-62
2022/01/24 02:56:07;;;;;;;18.05;11.80;;;;;;;2.13;45.41;95811.16;5010160;28;20205;-61
2022/01/24 02:58:35;;;;;;;24.05;12.13;;;;;;;2.41;45.31;95820.63;5010665;28;20344;-61
2022/01/24 03:01:06;;;;;;;20.70;12.15;;;;;;;2.56;44.81;95818.81;5010561;28;20190;-60
2022/01/24 03:03:34;;;;;;;20.85;12.15;;;;;;;2.51;44.04;95830.69;5009566;28;20205;-63
2022/01/24 03:06:01;;;;;;;21.65;12.10;;;;;;;2.65;44.49;95817.72;5010930;28;20222;-61
2022/01/24 03:08:28;;;;;;;20.55;10.75;;;;;;;1.54;45.92;95833.63;5009732;28;20201;-61
2022/01/24 03:10:58;;;;;;;24.40;13.13;;;;;;;1.97;46.15;95831.06;5010630;28;20194;-62
2022/01/24 03:15:54;;;;;;;22.75;12.73;;;;;;;2.58;45.57;95834.97;5009800;28;20189;-63
2022/01/24 03:18:22;;;;;;;20.30;12.13;;;;;;;3.04;43.84;95844.00;5009293;28;20684;-62
2022/01/24 03:20:50;;;;;;;20.75;12.48;;;;;;;2.48;44.64;95849.19;5010365;28;20585;-62
2022/01/24 03:23:19;;;;;;;23.15;13.02;;;;;;;3.22;43.97;95835.75;5007588;28;20201;-62
2022/01/24 03:25:47;;;;;;;24.80;13.43;;;;;;;3.19;43.35;95843.09;5010197;28;20240;-60
2022/01/24 03:28:14;;;;;;;19.90;11.82;;;;;;;3.15;43.46;95844.47;5009521;28;20194;-60
2022/01/24 03:30:46;;;;;;;21.90;13.00;;;;;;;3.82;42.47;95827.41;5010117;28;20236;-61
2022/01/24 03:33:13;;;;;;;21.33;12.80;;;;;;;2.87;44.33;95837.44;5009882;28;20212;-61
2022/01/24 03:35:40;;;;;;;22.58;12.73;;;;;;;2.92;43.91;95845.44;5009822;28;20225;-61
2022/01/24 03:38:07;;;;;;;20.05;12.10;;;;;;;2.11;45.67;95839.78;5009100;28;20609;-61
2022/01/24 03:40:34;;;;;;;22.33;12.75;;;;;;;2.56;44.88;95857.63;5009678;28;20261;-61
2022/01/24 03:43:01;;;;;;;20.60;11.98;;;;;;;2.70;44.62;95861.94;5009374;28;20197;-62
2022/01/24 03:46:36;;;;;;;21.45;12.15;;;;;;;2.53;45.21;95860.59;5009512;28;20584;-63
2022/01/24 03:48:37;;;;;;;20.75;11.95;;;;;;;3.22;43.61;95877.19;5012148;28;20646;-62
2022/01/24 03:51:04;;;;;;;20.95;12.85;;;;;;;3.10;43.83;95874.28;5009760;28;20707;-62
2022/01/24 03:53:31;;;;;;;27.63;15.93;;;;;;;2.90;44.51;95878.47;5008789;28;20218;-62
2022/01/24 03:55:58;;;;;;;30.55;17.25;;;;;;;2.61;44.61;95878.56;5009416;28;20202;-62
2022/01/24 03:58:25;;;;;;;26.65;16.40;;;;;;;2.52;44.47;95869.31;5008766;28;20216;-64
2022/01/24 04:00:52;;;;;;;24.95;15.38;;;;;;;2.83;44.03;95893.16;5009263;28;20194;-64
2022/01/24 04:03:19;;;;;;;25.83;14.48;;;;;;;2.77;44.07;95893.09;5008806;28;20732;-63
2022/01/24 04:05:47;;;;;;;26.63;15.85;;;;;;;2.52;44.11;95905.53;5009329;28;20229;-63
2022/01/24 04:08:14;;;;;;;25.02;15.05;;;;;;;2.64;44.08;95873.06;5008792;28;20202;-63
2022/01/24 04:10:44;;;;;;;29.65;15.77;;;;;;;2.78;44.04;95900.66;5009511;28;20214;-62
2022/01/24 04:23:54;;;;;;;27.17;16.13;;;;;;;2.83;43.41;95908.66;5008757;28;20226;-62
2022/01/24 04:26:22;;;;;;;26.98;16.42;;;;;;;2.87;43.31;95907.34;5009015;28;20723;-63
2022/01/24 04:28:49;;;;;;;28.10;16.05;;;;;;;2.59;44.13;95903.03;5008515;28;20747;-62
2022/01/24 04:31:17;;;;;;;35.88;18.80;;;;;;;3.02;43.37;95922.81;5009290;28;20228;-62
2022/01/24 04:33:44;;;;;;;32.53;18.25;;;;;;;2.72;43.24;95922.09;5009864;28;20204;-63
2022/01/24 04:36:11;;;;;;;35.40;20.15;;;;;;;2.59;43.62;95901.22;5013266;28;20197;-61
2022/01/24 04:38:38;;;;;;;40.40;21.63;;;;;;;2.98;43.08;95937.09;5012802;28;20205;-62
2022/01/24 04:41:14;;;;;;;45.22;23.52;;;;;;;2.78;43.14;95933.50;5012867;28;20229;-62
2022/01/24 04:46:41;;;;;;;43.00;23.45;;;;;;;2.59;43.13;95939.25;5012203;28;20214;-65
2022/01/24 04:52:08;;;;;;;37.90;20.70;;;;;;;2.43;43.42;95936.84;5013146;28;20194;-62
2022/01/24 04:54:42;;;;;;;35.83;19.50;;;;;;;2.67;43.50;95947.72;5012368;28;20205;-60
2022/01/24 04:57:12;;;;;;;37.03;19.77;;;;;;;2.74;42.64;95946.00;5012805;28;20663;-61
2022/01/24 04:59:40;;;;;;;40.13;18.85;;;;;;;2.84;42.79;95951.72;5013119;28;20198;-62
2022/01/24 05:02:08;;;;;;;33.97;19.35;;;;;;;2.75;42.53;95954.56;5011961;28;20205;-61
2022/01/24 05:04:36;;;;;;;32.35;18.17;;;;;;;2.49;42.90;95957.63;5012158;28;20704;-61
2022/01/24 05:07:03;;;;;;;31.48;19.02;;;;;;;2.13;43.95;95964.50;5012078;28;20324;-62
2022/01/24 05:09:37;;;;;;;40.60;22.23;;;;;;;2.35;43.57;95966.22;5001188;28;20231;-62
2022/01/24 05:12:12;;;;;;;40.42;21.55;;;;;;;2.65;42.91;95966.97;4992806;28;20241;-61
2022/01/24 05:25:40;;;;;;;36.13;16.27;;;;;;;2.19;42.34;95997.38;4992677;28;20221;-63
2022/01/24 05:28:07;;;;;;;30.92;16.88;;;;;;;2.26;42.31;95987.97;4990413;28;20184;-61
2022/01/24 05:30:34;;;;;;;28.65;16.15;;;;;;;2.64;41.11;95997.25;4991797;28;20257;-60
2022/01/24 05:33:01;;;;;;;27.50;15.88;;;;;;;2.31;41.82;95997.78;4991819;28;20207;-60
2022/01/24 05:35:28;;;;;;;27.98;15.13;;;;;;;2.58;41.16;96008.31;4992763;28;20199;-64
2022/01/24 05:37:55;;;;;;;22.05;13.00;;;;;;;2.46;40.88;96009.75;4991898;28;20677;-62
2022/01/24 05:40:22;;;;;;;24.98;13.40;;;;;;;3.12;39.97;96021.69;4991977;28;20194;-63
2022/01/24 05:42:49;;;;;;;179.75;92.13;;;;;;;3.03;40.75;96023.59;4990812;28;20297;-62
2022/01/24 05:45:16;;;;;;;27.95;15.73;;;;;;;2.48;40.81;96007.75;4991015;28;20211;-62
2022/01/24 05:47:43;;;;;;;26.45;15.65;;;;;;;2.51;40.64;96011.78;4991511;28;20272;-63
2022/01/24 05:50:10;;;;;;;22.80;12.25;;;;;;;2.41;40.52;96032.72;4991761;28;20271;-62
2022/01/24 05:52:37;;;;;;;18.70;10.77;;;;;;;2.27;40.69;96027.53;4991813;28;20993;-61
2022/01/24 05:55:05;;;;;;;23.48;11.77;;;;;;;2.35;39.89;96040.41;4991418;28;20187;-62
2022/01/24 05:57:32;;;;;;;20.50;11.45;;;;;;;2.47;39.68;96037.22;4991148;28;20198;-62
2022/01/24 05:59:59;;;;;;;23.20;12.02;;;;;;;2.54;39.70;96052.81;4991878;28;20666;-61
2022/01/24 06:02:26;;;;;;;16.80;9.32;;;;;;;2.17;39.08;96045.91;4991949;28;20202;-61
2022/01/24 06:04:53;;;;;;;13.32;8.10;;;;;;;2.59;39.05;96059.06;4991638;28;20219;-63
2022/01/24 06:07:20;;;;;;;11.68;7.20;;;;;;;2.48;39.21;96056.91;4991091;28;20210;-63
2022/01/24 06:09:47;;;;;;;14.48;8.52;;;;;;;2.82;40.38;96067.56;4991424;28;20206;-63
2022/01/24 06:12:14;;;;;;;23.38;13.73;;;;;;;2.54;40.05;96079.50;4991371;28;20214;-63
2022/01/24 06:14:41;;;;;;;23.73;13.15;;;;;;;2.67;39.63;96071.91;4991261;28;20202;-62
2022/01/24 06:17:10;;;;;;;27.73;13.77;;;;;;;2.71;39.37;96069.78;4990600;28;20238;-62
2022/01/24 06:19:37;;;;;;;24.50;13.50;;;;;;;2.90;39.15;96074.44;4990906;28;20704;-61
2022/01/24 06:22:04;;;;;;;26.75;13.85;;;;;;;3.21;38.55;96082.00;4991142;28;20187;-62
2022/01/24 06:24:31;;;;;;;22.70;12.30;;;;;;;3.31;38.18;96082.50;4989788;28;20237;-61
2022/01/24 06:27:11;;;;;;;18.50;9.90;;;;;;;3.18;38.12;96069.38;4991296;28;20211;-62
2022/01/24 06:29:38;;;;;;;20.25;10.70;;;;;;;3.11;38.39;96079.69;4991408;28;20252;-62
2022/01/24 06:32:05;;;;;;;14.15;8.65;;;;;;;3.21;37.45;96090.56;4991434;28;20293;-62
2022/01/24 06:34:32;;;;;;;15.00;8.57;;;;;;;2.96;36.97;96090.03;4990470;28;20202;-61
2022/01/24 06:36:59;;;;;;;19.20;10.85;;;;;;;3.47;37.25;96082.28;4991542;28;20256;-60
2022/01/24 06:39:26;;;;;;;22.67;12.75;;;;;;;2.71;38.86;96096.47;4992150;28;20217;-62
2022/01/24 06:42:08;;;;;;;30.15;14.68;;;;;;;2.56;39.53;96077.53;4991874;28;20304;-60
2022/01/24 06:44:35;;;;;;;27.52;15.18;;;;;;;3.49;38.08;96101.03;4992876;28;20669;-61
2022/01/24 06:47:03;;;;;;;30.95;16.40;;;;;;;3.55;37.93;96101.13;4992120;28;20220;-61
2022/01/24 06:49:31;;;;;;;31.48;16.58;;;;;;;3.74;37.17;96089.38;4991015;28;20179;-60
2022/01/24 06:51:58;;;;;;;29.40;15.07;;;;;;;3.28;36.36;96098.41;4991745;28;20198;-61
2022/01/24 06:54:25;;;;;;;24.40;13.80;;;;;;;3.45;37.21;96099.81;4990768;28;20202;-61
2022/01/24 06:56:51;;;;;;;21.83;10.43;;;;;;;3.60;36.57;96105.75;4990561;28;20261;-62
2022/01/24 06:59:19;;;;;;;14.25;8.98;;;;;;;3.59;37.06;96107.56;4990839;28;20217;-61
2022/01/24 07:01:46;;;;;;;17.92;9.45;;;;;;;3.45;36.87;96113.56;4991034;28;20194;-61
2022/01/24 07:04:13;;;;;;;16.95;9.25;;;;;;;3.65;36.79;96111.22;4990371;28;20210;-62
2022/01/24 07:06:40;;;;;;;15.98;7.82;;;;;;;3.27;36.66;96127.88;4990618;28;20716;-62
2022/01/24 07:09:07;;;;;;;13.23;7.38;;;;;;;3.69;36.37;96120.19;4989907;28;20206;-61
2022/01/24 07:11:34;;;;;;;15.52;8.38;;;;;;;3.98;36.00;96122.69;4990996;28;20225;-61
2022/01/24 07:14:05;;;;;;;13.73;8.27;;;;;;;4.07;35.67;96121.59;4990574;28;20511;-62
2022/01/24 07:16:50;;;;;;;13.25;7.90;;;;;;;4.49;35.38;96121.56;4990624;28;20981;-61
2022/01/24 07:19:16;;;;;;;14.57;8.88;;;;;;;4.47;35.34;96128.75;4989927;28;20206;-61
2022/01/24 07:21:45;;;;;;;16.85;8.30;;;;;;;4.63;35.20;96122.50;4990642;28;20229;-60
2022/01/24 07:24:13;;;;;;;14.05;7.57;;;;;;;4.24;35.08;96132.53;4990041;28;20194;-60
2022/01/24 07:26:40;;;;;;;14.95;9.00;;;;;;;4.06;35.71;96131.19;4990920;28;20655;-61
2022/01/24 07:29:07;;;;;;;9.48;6.15;;;;;;;3.91;34.44;96133.03;4990045;28;20206;-60
2022/01/24 07:31:34;;;;;;;11.02;6.60;;;;;;;4.41;34.94;96133.88;4991006;28;20190;-61
2022/01/24 07:34:00;;;;;;;11.82;7.07;;;;;;;4.65;34.29;96142.06;4990597;28;20187;-60
2022/01/24 07:36:27;;;;;;;14.55;8.73;;;;;;;4.87;33.85;96148.81;4990454;28;20284;-61
2022/01/24 07:38:54;;;;;;;12.55;6.90;;;;;;;4.54;33.80;96163.38;4989622;28;20210;-60
2022/01/24 07:41:28;;;;;;;11.30;6.63;;;;;;;4.06;34.34;96151.13;4990468;28;20186;-60
2022/01/24 07:43:55;;;;;;;14.07;7.55;;;;;;;4.68;34.20;96146.91;4990039;28;20678;-61
2022/01/24 07:46:23;;;;;;;16.08;8.70;;;;;;;3.83;34.37;96160.88;4990769;28;20276;-61
2022/01/24 07:48:50;;;;;;;21.05;10.38;;;;;;;4.06;34.76;96161.50;4989813;28;20190;-60
2022/01/24 07:51:18;;;;;;;21.23;11.07;;;;;;;4.17;34.85;96158.41;4990699;28;20229;-61
2022/01/24 07:53:45;;;;;;;19.73;11.65;;;;;;;4.27;34.61;96161.50;4990057;28;20203;-62
2022/01/24 07:56:17;;;;;;;22.70;12.73;;;;;;;3.41;35.65;96177.09;4990187;28;20512;-61
2022/01/24 07:58:44;;;;;;;25.50;13.07;;;;;;;3.36;36.04;96179.41;4989398;28;20202;-61
2022/01/24 08:01:12;;;;;;;27.10;13.32;;;;;;;3.07;36.61;96185.41;4990018;28;20194;-62
2022/01/24 08:03:39;;;;;;;26.55;13.05;;;;;;;3.24;36.45;96180.03;4990174;28;20251;-61
2022/01/24 08:06:06;;;;;;;23.92;12.82;;;;;;;3.48;36.53;96177.19;4989908;28;20198;-61
2022/01/24 08:08:33;;;;;;;22.80;12.07;;;;;;;3.27;36.62;96170.13;4989087;28;20186;-62
2022/01/24 08:11:00;;;;;;;17.17;9.60;;;;;;;3.48;36.50;96192.72;4990476;28;20197;-61
2022/01/24 08:13:27;;;;;;;17.15;9.30;;;;;;;3.30;36.84;96200.88;4989865;28;20198;-61
2022/01/24 08:15:54;;;;;;;25.10;12.93;;;;;;;3.03;37.67;96198.88;4989734;28;20234;-61
2022/01/24 08:18:21;;;;;;;24.63;13.35;;;;;;;3.39;37.01;96198.97;4988842;28;20633;-60
2022/01/24 08:20:48;;;;;;;26.83;13.20;;;;;;;3.99;36.55;96192.56;4989721;28;20206;-61
2022/01/24 08:23:16;;;;;;;14.27;8.57;;;;;;;4.12;36.44;96207.47;4989214;28;20194;-61
2022/01/24 08:25:43;;;;;;;16.65;8.55;;;;;;;3.76;35.84;96206.66;4990575;28;20194;-61
2022/01/24 08:28:10;;;;;;;15.82;8.30;;;;;;;3.67;37.12;96212.88;4988982;28;20218;-61
2022/01/24 08:30:37;;;;;;;12.88;7.32;;;;;;;3.61;37.20;96214.41;4989789;28;20195;-61
2022/01/24 08:33:05;;;;;;;17.25;8.85;;;;;;;3.80;37.00;96213.88;4989597;28;20194;-61
2022/01/24 08:35:33;;;;;;;13.68;8.13;;;;;;;3.92;36.42;96211.63;4990033;28;20212;-62
2022/01/24 08:38:00;;;;;;;17.55;9.18;;;;;;;4.18;36.17;96232.66;4989155;28;20198;-61
2022/01/24 08:40:30;;;;;;;18.58;10.18;;;;;;;4.37;36.19;96226.06;4989763;28;20228;-60
2022/01/24 08:43:05;;;;;;;17.05;9.45;;;;;;;3.88;36.46;96228.53;4989391;28;20207;-61
2022/01/24 08:46:09;;;;;;;15.23;8.57;;;;;;;4.32;36.18;96223.22;4989931;28;20210;-61
2022/01/24 08:48:34;;;;;;;17.33;10.05;;;;;;;4.46;36.33;96223.19;4988624;28;20203;-61
2022/01/24 08:51:01;;;;;;;19.25;11.52;;;;;;;4.47;36.17;96221.38;4989877;28;20186;-62
2022/01/24 08:53:34;;;;;;;20.63;12.13;;;;;;;4.94;36.03;96234.59;4989223;28;20230;-61
2022/01/24 08:56:04;;;;;;;25.55;16.75;;;;;;;5.23;35.34;96228.41;4989976;28;20203;-61
2022/01/24 08:58:32;;;;;;;23.00;13.50;;;;;;;5.19;35.29;96222.78;4989169;28;20569;-60
2022/01/24 09:00:59;;;;;;;25.05;13.32;;;;;;;5.21;35.24;96230.38;4989541;28;20199;-60
2022/01/24 09:03:29;;;;;;;22.10;12.15;;;;;;;4.96;35.04;96230.78;4989091;28;20726;-61
2022/01/24 09:05:59;;;;;;;20.65;12.50;;;;;;;5.05;35.44;96242.66;4989620;28;20627;-60
2022/01/24 09:08:26;;;;;;;20.10;11.20;;;;;;;4.95;35.13;96241.38;4988738;28;20701;-61
2022/01/24 09:10:53;;;;;;;19.35;11.57;;;;;;;5.02;35.13;96222.25;4989533;28;20253;-62
2022/01/24 09:13:21;;;;;;;18.98;11.32;;;;;;;5.31;34.53;96236.84;4989549;28;20206;-65
2022/01/24 09:15:49;;;;;;;21.83;12.40;;;;;;;5.01;34.74;96232.84;4989283;28;20342;-61
2022/01/24 09:18:19;;;;;;;20.38;11.77;;;;;;;5.35;33.73;96232.06;4989072;28;20218;-61
2022/01/24 09:20:49;;;;;;;22.10;13.05;;;;;;;4.83;35.00;96238.50;4992077;28;20211;-61
2022/01/24 09:23:17;;;;;;;24.30;13.63;;;;;;;5.18;35.11;96241.97;4992985;28;20230;-60
2022/01/24 09:25:44;;;;;;;20.95;11.68;;;;;;;5.48;34.38;96232.16;4993569;28;20207;-67
2022/01/24 09:28:11;;;;;;;23.35;12.32;;;;;;;5.91;33.46;96233.63;4992727;28;20245;-61
2022/01/24 09:30:38;;;;;;;26.05;13.95;;;;;;;6.33;33.07;96227.38;4992411;28;20697;-61
2022/01/24 09:33:05;;;;;;;27.02;14.50;;;;;;;7.08;32.48;96225.22;4992506;28;20191;-62
2022/01/24 09:35:32;;;;;;;18.85;11.02;;;;;;;6.78;31.80;96222.25;4993147;28;20202;-61
2022/01/24 09:37:59;;;;;;;17.73;10.70;;;;;;;6.81;32.25;96221.03;5023321;28;20655;-61
2022/01/24 09:40:26;;;;;;;17.60;9.70;;;;;;;6.72;30.39;96211.81;4992487;28;20281;-62
2022/01/24 09:42:53;;;;;;;16.45;9.65;;;;;;;6.20;30.81;96225.53;4992359;28;20183;-61
2022/01/24 09:45:22;;;;;;;14.40;8.85;;;;;;;5.99;31.53;96225.63;4992432;28;20334;-61
2022/01/24 09:47:50;;;;;;;14.52;9.02;;;;;;;5.99;31.31;96225.63;4991708;28;20228;-61
2022/01/24 09:50:18;;;;;;;16.42;10.27;;;;;;;5.95;31.75;96224.41;4992471;28;20664;-61
2022/01/24 09:52:48;;;;;;;15.05;9.23;;;;;;;5.81;32.18;96227.94;4992420;28;21434;-61
2022/01/24 09:55:18;;;;;;;20.00;10.50;;;;;;;5.47;31.76;96231.38;4992276;28;20194;-62
2022/01/24 09:57:49;;;;;;;15.45;9.48;;;;;;;5.18;32.11;96225.56;4992381;28;20191;-61
2022/01/24 10:00:20;;;;;;;17.83;10.95;;;;;;;5.46;32.35;96215.94;4991554;28;20205;-61
2022/01/24 10:02:49;;;;;;;15.95;9.45;;;;;;;5.01;32.48;96219.84;4992055;28;20195;-62
2022/01/24 10:05:30;;;;;;;22.95;13.77;;;;;;;5.35;32.60;96219.06;4991882;28;20183;-60
2022/01/24 10:08:17;;;;;;;14.35;8.18;;;;;;;5.45;31.28;96219.56;4991618;28;20242;-61
2022/01/24 10:10:46;;;;;;;14.18;8.00;;;;;;;5.14;30.54;96220.78;4991741;28;20301;-61
2022/01/24 10:16:30;;;;;;;12.10;7.32;;;;;;;4.85;30.98;96210.53;4991545;28;20234;-61
2022/01/24 10:19:16;;;;;;;15.45;8.65;;;;;;;4.65;31.82;96213.97;4991311;28;20186;-62
2022/01/24 10:22:04;;;;;;;15.32;7.50;;;;;;;4.77;32.74;96218.47;4991962;28;20667;-62
2022/01/24 10:24:36;;;;;;;12.65;7.25;;;;;;;5.10;31.51;96216.94;4991582;28;20207;-62
2022/01/24 10:27:11;;;;;;;12.70;7.30;;;;;;;5.30;31.05;96218.84;4991591;28;20713;-61
2022/01/24 10:29:56;;;;;;;14.85;8.25;;;;;;;5.74;30.73;96216.69;4991022;28;20880;-61
2022/01/24 10:32:37;;;;;;;13.32;7.30;;;;;;;5.74;30.33;96216.69;4990793;28;20195;-62
2022/01/24 10:35:23;;;;;;;12.48;7.40;;;;;;;5.74;30.77;96214.09;4991603;28;20206;-62
2022/01/24 10:37:54;;;;;;;18.35;9.93;;;;;;;5.21;30.93;96210.41;4991005;28;21017;-61
2022/01/24 10:40:44;;;;;;;18.17;9.13;;;;;;;5.76;30.28;96214.72;4991646;28;20756;-61
2022/01/24 10:43:18;;;;;;;14.57;8.00;;;;;;;6.40;29.70;96210.78;4990796;28;20206;-62
2022/01/24 10:45:46;;;;;;;13.25;7.15;;;;;;;6.03;29.44;96226.88;4991887;28;20206;-61
2022/01/24 10:48:19;;;;;;;13.05;7.93;;;;;;;5.27;29.98;96221.84;4991591;28;20680;-61
2022/01/24 10:50:46;;;;;;;16.25;8.35;;;;;;;5.05;30.13;96227.06;4991715;28;20214;-60
2022/01/24 10:53:15;;;;;;;14.63;7.80;;;;;;;4.86;30.69;96232.94;4990769;28;20198;-61
2022/01/24 10:55:47;;;;;;;18.00;9.38;;;;;;;4.95;31.35;96231.78;4991513;28;20224;-62
2022/01/24 10:58:18;;;;;;;14.05;8.40;;;;;;;4.61;31.72;96229.13;4990537;28;20749;-61
2022/01/24 11:00:46;;;;;;;14.52;8.70;;;;;;;4.67;32.45;96225.75;4991004;28;20183;-61
2022/01/24 11:03:18;;;;;;;17.48;9.48;;;;;;;4.63;34.13;96237.53;4991136;28;20199;-65
2022/01/24 11:05:46;;;;;;;13.50;8.27;;;;;;;4.98;33.01;96226.22;4995179;28;20199;-62
2022/01/24 11:08:15;;;;;;;17.00;9.95;;;;;;;4.69;32.92;96230.78;4993766;28;20236;-62
2022/01/24 11:10:48;;;;;;;13.55;7.60;;;;;;;4.56;32.78;96226.25;4990835;28;20562;-61
2022/01/24 11:13:20;;;;;;;13.68;7.70;;;;;;;4.76;33.01;96222.03;4994053;28;20217;-62
2022/01/24 11:15:56;;;;;;;13.80;8.10;;;;;;;4.35;33.73;96234.03;4989365;28;20245;-61
2022/01/24 11:18:29;;;;;;;12.07;7.18;;;;;;;4.52;32.73;96225.03;4991992;28;20202;-61
2022/01/24 11:21:02;;;;;;;12.57;7.90;;;;;;;4.29;33.19;96221.78;4997187;28;20198;-61
2022/01/24 11:23:29;;;;;;;14.38;8.18;;;;;;;4.11;33.64;96227.41;5005920;28;20279;-61
2022/01/24 11:25:57;;;;;;;15.88;8.55;;;;;;;4.91;32.61;96227.97;5009476;28;21091;-61
2022/01/24 11:28:25;;;;;;;11.90;7.05;;;;;;;5.27;31.51;96224.44;5009373;28;20283;-61
2022/01/24 11:31:17;;;;;;;15.55;8.63;;;;;;;5.04;32.04;96222.88;5009995;28;20618;-62
2022/01/24 11:34:13;;;;;;;19.35;11.18;;;;;;;5.27;32.57;96220.06;5009500;28;20613;-62
2022/01/24 11:36:42;;;;;;;15.60;9.18;;;;;;;4.65;32.28;96227.72;5007020;28;20250;-61
2022/01/24 11:39:10;;;;;;;17.60;9.85;;;;;;;4.52;32.24;96213.84;5009553;28;20212;-60
2022/01/24 11:41:40;;;;;;;13.82;8.55;;;;;;;4.13;32.27;96224.63;5025193;28;20587;-61
2022/01/24 11:44:16;;;;;;;16.60;9.80;;;;;;;4.56;31.92;96226.25;5008740;28;20201;-60
2022/01/24 11:49:25;;;;;;;15.23;8.52;;;;;;;4.13;31.15;96235.00;4999446;28;20226;-60
2022/01/24 11:52:13;;;;;;;17.80;9.18;;;;;;;4.40;31.01;96225.72;4988379;28;20198;-60
2022/01/24 11:57:20;;;;;;;14.25;8.00;;;;;;;5.30;29.57;96227.47;4990079;28;20202;-61
2022/01/24 11:59:49;;;;;;;11.55;7.03;;;;;;;4.76;29.69;96232.41;4994337;28;20202;-61
2022/01/24 12:02:23;;;;;;;14.18;7.30;;;;;;;4.65;30.15;96232.13;4990775;28;20650;-62
2022/01/24 12:04:57;;;;;;;14.13;7.80;;;;;;;5.30;29.95;96224.03;4993294;28;20291;-61
2022/01/24 12:07:28;;;;;;;17.42;10.55;;;;;;;5.15;29.46;96222.34;4989476;28;20221;-61
2022/01/24 12:10:20;;;;;;;12.57;6.78;;;;;;;5.95;29.16;96221.81;4991436;28;20209;-61
2022/01/24 12:12:50;;;;;;;15.57;8.55;;;;;;;6.46;28.31;96214.38;4989160;28;20210;-61
2022/01/24 12:15:38;;;;;;;13.02;7.70;;;;;;;8.11;26.75;96205.13;4989846;28;20265;-61
2022/01/24 12:18:09;;;;;;;13.90;7.43;;;;;;;9.12;25.33;96219.78;4989199;28;20230;-60
2022/01/24 12:20:36;;;;;;;15.65;8.82;;;;;;;7.98;25.52;96212.22;4989491;28;20230;-60
2022/01/24 12:23:20;;;;;;;14.55;7.53;;;;;;;7.33;27.61;96215.00;4989001;28;20583;-61
2022/01/24 12:26:20;;;;;;;13.52;7.50;;;;;;;6.15;28.00;96227.91;4990283;28;20213;-60
2022/01/24 12:28:50;;;;;;;16.50;9.25;;;;;;;5.32;28.56;96224.66;4988752;28;20230;-61
2022/01/24 12:31:27;;;;;;;17.00;8.43;;;;;;;4.47;29.64;96232.56;4990355;28;20253;-61
2022/01/24 12:33:54;;;;;;;12.50;7.70;;;;;;;4.39;30.21;96237.06;4989339;28;20194;-61
2022/01/24 12:39:32;;;;;;;16.30;8.75;;;;;;;4.09;30.37;96238.94;4988327;28;20218;-62
2022/01/24 12:42:19;;;;;;;16.05;9.15;;;;;;;4.38;30.21;96244.03;4989508;28;20222;-63
2022/01/24 12:47:22;;;;;;;14.65;8.38;;;;;;;8.94;25.95;96219.72;4989649;28;20217;-61
2022/01/24 12:49:51;;;;;;;12.52;8.43;;;;;;;9.69;24.42;96230.97;4988982;28;20741;-60
2022/01/24 12:52:22;;;;;;;15.85;8.85;;;;;;;10.12;23.34;96234.31;4989503;28;20581;-62
2022/01/24 12:54:52;;;;;;;14.38;9.50;;;;;;;8.82;24.22;96236.31;4989751;28;20251;-61
2022/01/24 12:57:22;;;;;;;14.15;9.18;;;;;;;7.66;26.71;96234.81;4993291;28;20736;-61
2022/01/24 12:59:54;;;;;;;14.60;9.40;;;;;;;6.40;27.30;96238.59;4992370;28;20206;-61
2022/01/24 13:02:27;;;;;;;15.07;9.60;;;;;;;6.82;27.02;96239.09;4993606;28;20591;-61
2022/01/24 13:05:06;;;;;;;19.58;11.55;;;;;;;6.63;27.01;96234.63;4992450;28;20179;-61
2022/01/24 13:07:34;;;;;;;18.90;11.18;;;;;;;6.10;27.60;96238.91;4993049;28;20245;-61
2022/01/24 13:10:10;;;;;;;15.02;9.93;;;;;;;6.23;27.90;96232.94;4992045;28;20187;-61
2022/01/24 13:12:38;;;;;;;21.08;11.88;;;;;;;5.96;27.92;96246.84;4993068;28;20244;-61
2022/01/24 13:15:19;;;;;;;21.17;12.05;;;;;;;7.65;26.35;96227.16;4992373;28;20202;-61
2022/01/24 13:21:06;;;;;;;16.17;10.38;;;;;;;8.74;24.34;96205.22;4992524;28;20217;-61
2022/01/24 13:23:29;;;;;;;17.63;10.23;;;;;;;9.65;23.36;96220.09;4992189;28;20198;-62
2022/01/24 13:25:56;;;;;;;15.15;9.50;;;;;;;10.48;23.34;96220.34;4992679;28;20183;-61
2022/01/24 13:28:23;;;;;;;19.42;10.30;;;;;;;10.43;22.52;96223.66;4992690;28;20249;-60
2022/01/24 13:31:02;;;;;;;13.90;9.00;;;;;;;9.66;22.56;96231.38;4992335;28;20281;-60
2022/01/24 13:33:37;;;;;;;13.45;9.05;;;;;;;9.54;22.91;96227.88;4992104;28;20606;-62
2022/01/24 13:36:08;;;;;;;15.82;10.00;;;;;;;10.27;22.75;96229.50;4992350;28;20277;-61
2022/01/24 13:38:48;;;;;;;16.92;10.15;;;;;;;9.48;24.31;96231.34;4991777;28;20197;-61
2022/01/24 13:41:18;;;;;;;18.73;10.68;;;;;;;7.75;24.75;96251.03;4992871;28;20202;-61
2022/01/24 13:43:45;;;;;;;16.40;10.90;;;;;;;6.38;26.24;96251.81;4992636;28;20210;-61
2022/01/24 13:46:13;;;;;;;18.45;10.55;;;;;;;5.83;27.18;96252.00;4992450;28;20230;-59
2022/01/24 13:48:47;;;;;;;15.10;10.13;;;;;;;5.31;28.01;96267.25;4992290;28;20237;-60